sensor_id;sensor_type;location;lat;lon;timestamp;P1;durP1;ratioP1;P2;durP2;ratioP2
7255;SDS011;3669;49.200;9.242;2023-12-28T00:01:47;13.95;;;12.18;;
7255;SDS011;3669;49.200;9.242;2023-12-28T00:04:16;12.10;;;10.82;;
7255;SDS011;3669;49.200;9.242;2023-12-28T00:06:43;13.65;;;12.25;;
7255;SDS011;3669;49.200;9.242;2023-12-28T00:09:10;13.82;;;12.27;;
7255;SDS011;3669;49.200;9.242;2023-12-28T00:11:38;13.57;;;12.18;;
7255;SDS011;3669;49.200;9.242;2023-12-28T00:14:05;13.15;;;11.75;;
7255;SDS011;3669;49.200;9.242;2023-12-28T00:16:32;12.07;;;10.88;;
7255;SDS011;3669;49.200;9.242;2023-12-28T00:19:00;13.80;;;11.38;;
7255;SDS011;3669;49.200;9.242;2023-12-28T00:21:28;10.88;;;9.82;;
7255;SDS011;3669;49.200;9.242;2023-12-28T00:23:55;11.65;;;10.38;;
7255;SDS011;3669;49.200;9.242;2023-12-28T00:26:22;12.63;;;10.43;;
7255;SDS011;3669;49.200;9.242;2023-12-28T00:28:49;12.35;;;11.18;;
7255;SDS011;3669;49.200;9.242;2023-12-28T00:31:16;11.20;;;10.13;;
7255;SDS011;3669;49.200;9.242;2023-12-28T00:33:43;11.93;;;10.73;;
7255;SDS011;3669;49.200;9.242;2023-12-28T00:36:10;11.20;;;10.20;;
7255;SDS011;3669;49.200;9.242;2023-12-28T00:38:37;11.35;;;10.25;;
7255;SDS011;3669;49.200;9.242;2023-12-28T00:41:04;11.63;;;10.57;;
7255;SDS011;3669;49.200;9.242;2023-12-28T00:43:31;12.10;;;10.90;;
7255;SDS011;3669;49.200;9.242;2023-12-28T00:45:58;12.95;;;11.55;;
7255;SDS011;3669;49.200;9.242;2023-12-28T00:48:25;12.35;;;11.05;;
7255;SDS011;3669;49.200;9.242;2023-12-28T00:50:52;11.65;;;10.55;;
7255;SDS011;3669;49.200;9.242;2023-12-28T00:53:21;11.23;;;10.13;;
7255;SDS011;3669;49.200;9.242;2023-12-28T00:55:48;10.93;;;10.02;;
7255;SDS011;3669;49.200;9.242;2023-12-28T00:58:15;11.43;;;10.43;;
7255;SDS011;3669;49.200;9.242;2023-12-28T01:00:43;11.55;;;10.45;;
7255;SDS011;3669;49.200;9.242;2023-12-28T01:03:10;11.45;;;10.35;;
7255;SDS011;3669;49.200;9.242;2023-12-28T01:05:37;11.80;;;10.75;;
7255;SDS011;3669;49.200;9.242;2023-12-28T01:08:04;10.95;;;9.95;;
7255;SDS011;3669;49.200;9.242;2023-12-28T01:10:31;12.15;;;10.32;;
7255;SDS011;3669;49.200;9.242;2023-12-28T01:12:58;10.55;;;9.55;;
7255;SDS011;3669;49.200;9.242;2023-12-28T01:15:25;11.25;;;10.25;;
7255;SDS011;3669;49.200;9.242;2023-12-28T01:17:51;11.50;;;10.43;;
7255;SDS011;3669;49.200;9.242;2023-12-28T01:20:18;12.10;;;10.77;;
7255;SDS011;3669;49.200;9.242;2023-12-28T01:22:46;10.57;;;9.57;;
7255;SDS011;3669;49.200;9.242;2023-12-28T01:25:15;11.05;;;10.15;;
7255;SDS011;3669;49.200;9.242;2023-12-28T01:27:42;11.82;;;10.60;;
7255;SDS011;3669;49.200;9.242;2023-12-28T01:30:09;24.00;;;22.13;;
7255;SDS011;3669;49.200;9.242;2023-12-28T01:32:36;31.42;;;29.58;;
7255;SDS011;3669;49.200;9.242;2023-12-28T01:35:03;35.28;;;32.78;;
7255;SDS011;3669;49.200;9.242;2023-12-28T01:37:30;29.58;;;27.88;;
7255;SDS011;3669;49.200;9.242;2023-12-28T01:39:59;35.65;;;33.58;;
7255;SDS011;3669;49.200;9.242;2023-12-28T01:42:26;32.25;;;30.20;;
7255;SDS011;3669;49.200;9.242;2023-12-28T01:44:56;32.90;;;30.75;;
7255;SDS011;3669;49.200;9.242;2023-12-28T01:47:26;30.27;;;28.25;;
7255;SDS011;3669;49.200;9.242;2023-12-28T01:49:54;39.17;;;36.92;;
7255;SDS011;3669;49.200;9.242;2023-12-28T01:52:22;22.55;;;20.98;;
7255;SDS011;3669;49.200;9.242;2023-12-28T01:54:49;13.35;;;12.30;;
7255;SDS011;3669;49.200;9.242;2023-12-28T01:57:16;9.75;;;8.85;;
7255;SDS011;3669;49.200;9.242;2023-12-28T01:59:43;9.45;;;8.57;;
7255;SDS011;3669;49.200;9.242;2023-12-28T02:02:11;9.82;;;8.93;;
7255;SDS011;3669;49.200;9.242;2023-12-28T02:04:38;9.48;;;8.57;;
7255;SDS011;3669;49.200;9.242;2023-12-28T02:07:05;10.48;;;8.02;;
7255;SDS011;3669;49.200;9.242;2023-12-28T02:09:33;9.93;;;9.02;;
7255;SDS011;3669;49.200;9.242;2023-12-28T02:12:00;9.60;;;8.60;;
7255;SDS011;3669;49.200;9.242;2023-12-28T02:14:28;10.38;;;9.48;;
7255;SDS011;3669;49.200;9.242;2023-12-28T02:17:15;10.65;;;9.73;;
7255;SDS011;3669;49.200;9.242;2023-12-28T02:22:16;10.85;;;9.77;;
7255;SDS011;3669;49.200;9.242;2023-12-28T02:27:41;8.85;;;8.15;;
7255;SDS011;3669;49.200;9.242;2023-12-28T02:30:09;10.18;;;9.38;;
7255;SDS011;3669;49.200;9.242;2023-12-28T02:38:10;35.40;;;33.33;;
7255;SDS011;3669;49.200;9.242;2023-12-28T02:40:39;24.60;;;22.98;;
7255;SDS011;3669;49.200;9.242;2023-12-28T02:43:07;9.65;;;8.85;;
7255;SDS011;3669;49.200;9.242;2023-12-28T02:45:34;10.52;;;9.65;;
7255;SDS011;3669;49.200;9.242;2023-12-28T02:48:02;9.60;;;8.60;;
7255;SDS011;3669;49.200;9.242;2023-12-28T02:50:29;10.07;;;9.18;;
7255;SDS011;3669;49.200;9.242;2023-12-28T02:52:56;10.18;;;9.18;;
7255;SDS011;3669;49.200;9.242;2023-12-28T02:55:24;9.15;;;8.27;;
7255;SDS011;3669;49.200;9.242;2023-12-28T02:57:51;9.77;;;8.52;;
7255;SDS011;3669;49.200;9.242;2023-12-28T03:00:20;9.52;;;8.63;;
7255;SDS011;3669;49.200;9.242;2023-12-28T03:02:47;9.63;;;8.73;;
7255;SDS011;3669;49.200;9.242;2023-12-28T03:05:14;8.88;;;8.10;;
7255;SDS011;3669;49.200;9.242;2023-12-28T03:07:41;8.82;;;8.10;;
7255;SDS011;3669;49.200;9.242;2023-12-28T03:10:09;8.35;;;7.65;;
7255;SDS011;3669;49.200;9.242;2023-12-28T03:12:39;9.68;;;8.77;;
7255;SDS011;3669;49.200;9.242;2023-12-28T03:15:06;9.02;;;8.23;;
7255;SDS011;3669;49.200;9.242;2023-12-28T03:17:34;8.93;;;8.23;;
7255;SDS011;3669;49.200;9.242;2023-12-28T03:20:02;8.05;;;7.35;;
7255;SDS011;3669;49.200;9.242;2023-12-28T03:22:29;9.00;;;8.25;;
7255;SDS011;3669;49.200;9.242;2023-12-28T03:24:57;7.72;;;7.03;;
7255;SDS011;3669;49.200;9.242;2023-12-28T03:27:24;8.52;;;7.80;;
7255;SDS011;3669;49.200;9.242;2023-12-28T03:29:51;8.70;;;8.00;;
7255;SDS011;3669;49.200;9.242;2023-12-28T03:32:18;7.80;;;7.07;;
7255;SDS011;3669;49.200;9.242;2023-12-28T03:34:45;9.00;;;8.10;;
7255;SDS011;3669;49.200;9.242;2023-12-28T03:37:12;9.02;;;8.32;;
7255;SDS011;3669;49.200;9.242;2023-12-28T03:39:39;7.78;;;7.18;;
7255;SDS011;3669;49.200;9.242;2023-12-28T03:42:06;8.25;;;7.55;;
7255;SDS011;3669;49.200;9.242;2023-12-28T03:44:33;7.80;;;7.05;;
7255;SDS011;3669;49.200;9.242;2023-12-28T03:47:00;8.30;;;7.60;;
7255;SDS011;3669;49.200;9.242;2023-12-28T03:49:27;8.85;;;8.05;;
7255;SDS011;3669;49.200;9.242;2023-12-28T03:51:54;8.40;;;7.70;;
7255;SDS011;3669;49.200;9.242;2023-12-28T03:54:21;9.18;;;8.48;;
7255;SDS011;3669;49.200;9.242;2023-12-28T03:56:49;8.18;;;7.47;;
7255;SDS011;3669;49.200;9.242;2023-12-28T03:59:16;8.00;;;7.30;;
7255;SDS011;3669;49.200;9.242;2023-12-28T04:01:43;8.82;;;8.10;;
7255;SDS011;3669;49.200;9.242;2023-12-28T04:04:10;8.38;;;7.78;;
7255;SDS011;3669;49.200;9.242;2023-12-28T04:06:37;8.20;;;7.47;;
7255;SDS011;3669;49.200;9.242;2023-12-28T04:09:05;9.05;;;8.35;;
7255;SDS011;3669;49.200;9.242;2023-12-28T04:11:32;7.78;;;7.07;;
7255;SDS011;3669;49.200;9.242;2023-12-28T04:13:59;8.40;;;7.60;;
7255;SDS011;3669;49.200;9.242;2023-12-28T04:16:26;8.13;;;7.43;;
7255;SDS011;3669;49.200;9.242;2023-12-28T04:18:53;8.07;;;7.47;;
7255;SDS011;3669;49.200;9.242;2023-12-28T04:21:20;8.32;;;7.57;;
7255;SDS011;3669;49.200;9.242;2023-12-28T04:23:47;8.43;;;7.63;;
7255;SDS011;3669;49.200;9.242;2023-12-28T04:26:14;9.10;;;8.40;;
7255;SDS011;3669;49.200;9.242;2023-12-28T04:28:48;8.43;;;7.72;;
7255;SDS011;3669;49.200;9.242;2023-12-28T04:31:15;8.52;;;7.80;;
7255;SDS011;3669;49.200;9.242;2023-12-28T04:33:41;15.50;;;14.32;;
7255;SDS011;3669;49.200;9.242;2023-12-28T04:36:08;24.92;;;23.45;;
7255;SDS011;3669;49.200;9.242;2023-12-28T04:38:35;34.10;;;32.13;;
7255;SDS011;3669;49.200;9.242;2023-12-28T04:41:04;43.83;;;41.17;;
7255;SDS011;3669;49.200;9.242;2023-12-28T04:43:31;36.88;;;34.35;;
7255;SDS011;3669;49.200;9.242;2023-12-28T04:46:02;30.58;;;28.83;;
7255;SDS011;3669;49.200;9.242;2023-12-28T04:48:31;36.33;;;34.13;;
7255;SDS011;3669;49.200;9.242;2023-12-28T04:50:58;27.50;;;25.75;;
7255;SDS011;3669;49.200;9.242;2023-12-28T04:53:25;15.07;;;14.05;;
7255;SDS011;3669;49.200;9.242;2023-12-28T04:55:51;9.38;;;8.55;;
7255;SDS011;3669;49.200;9.242;2023-12-28T04:58:18;9.68;;;8.68;;
7255;SDS011;3669;49.200;9.242;2023-12-28T05:00:46;8.48;;;7.68;;
7255;SDS011;3669;49.200;9.242;2023-12-28T05:03:13;9.52;;;8.68;;
7255;SDS011;3669;49.200;9.242;2023-12-28T05:05:40;8.80;;;8.00;;
7255;SDS011;3669;49.200;9.242;2023-12-28T05:08:07;8.80;;;7.93;;
7255;SDS011;3669;49.200;9.242;2023-12-28T05:10:34;8.35;;;7.72;;
7255;SDS011;3669;49.200;9.242;2023-12-28T05:13:01;8.45;;;7.75;;
7255;SDS011;3669;49.200;9.242;2023-12-28T05:15:28;8.85;;;8.10;;
7255;SDS011;3669;49.200;9.242;2023-12-28T05:17:56;9.05;;;8.18;;
7255;SDS011;3669;49.200;9.242;2023-12-28T05:20:23;9.98;;;9.02;;
7255;SDS011;3669;49.200;9.242;2023-12-28T05:22:50;9.13;;;8.35;;
7255;SDS011;3669;49.200;9.242;2023-12-28T05:25:17;9.18;;;8.38;;
7255;SDS011;3669;49.200;9.242;2023-12-28T05:27:44;8.70;;;7.97;;
7255;SDS011;3669;49.200;9.242;2023-12-28T05:30:11;8.30;;;7.70;;
7255;SDS011;3669;49.200;9.242;2023-12-28T05:32:38;8.10;;;7.43;;
7255;SDS011;3669;49.200;9.242;2023-12-28T05:35:05;19.05;;;17.90;;
7255;SDS011;3669;49.200;9.242;2023-12-28T05:37:32;8.27;;;7.57;;
7255;SDS011;3669;49.200;9.242;2023-12-28T05:39:59;8.98;;;8.27;;
7255;SDS011;3669;49.200;9.242;2023-12-28T05:42:26;7.68;;;7.07;;
7255;SDS011;3669;49.200;9.242;2023-12-28T05:44:53;8.50;;;7.70;;
7255;SDS011;3669;49.200;9.242;2023-12-28T05:47:20;9.25;;;8.40;;
7255;SDS011;3669;49.200;9.242;2023-12-28T05:49:47;8.68;;;7.97;;
7255;SDS011;3669;49.200;9.242;2023-12-28T05:52:14;8.30;;;7.70;;
7255;SDS011;3669;49.200;9.242;2023-12-28T05:54:44;8.50;;;7.82;;
7255;SDS011;3669;49.200;9.242;2023-12-28T05:57:13;8.82;;;8.20;;
7255;SDS011;3669;49.200;9.242;2023-12-28T05:59:40;9.13;;;8.27;;
7255;SDS011;3669;49.200;9.242;2023-12-28T06:02:07;7.90;;;7.30;;
7255;SDS011;3669;49.200;9.242;2023-12-28T06:04:34;8.60;;;7.85;;
7255;SDS011;3669;49.200;9.242;2023-12-28T06:07:02;7.88;;;7.28;;
7255;SDS011;3669;49.200;9.242;2023-12-28T06:09:30;8.60;;;7.90;;
7255;SDS011;3669;49.200;9.242;2023-12-28T06:11:57;7.25;;;6.55;;
7255;SDS011;3669;49.200;9.242;2023-12-28T06:14:24;7.55;;;6.95;;
7255;SDS011;3669;49.200;9.242;2023-12-28T06:16:51;8.30;;;7.70;;
7255;SDS011;3669;49.200;9.242;2023-12-28T06:19:18;7.68;;;7.07;;
7255;SDS011;3669;49.200;9.242;2023-12-28T06:21:45;7.80;;;7.20;;
7255;SDS011;3669;49.200;9.242;2023-12-28T06:24:12;7.07;;;6.57;;
7255;SDS011;3669;49.200;9.242;2023-12-28T06:26:43;7.65;;;7.13;;
7255;SDS011;3669;49.200;9.242;2023-12-28T06:29:10;7.47;;;6.85;;
7255;SDS011;3669;49.200;9.242;2023-12-28T06:31:37;18.73;;;17.58;;
7255;SDS011;3669;49.200;9.242;2023-12-28T06:34:07;6.70;;;6.20;;
7255;SDS011;3669;49.200;9.242;2023-12-28T06:36:34;6.57;;;6.07;;
7255;SDS011;3669;49.200;9.242;2023-12-28T06:39:01;6.93;;;6.32;;
7255;SDS011;3669;49.200;9.242;2023-12-28T06:41:29;6.45;;;5.95;;
7255;SDS011;3669;49.200;9.242;2023-12-28T06:43:56;6.68;;;6.18;;
7255;SDS011;3669;49.200;9.242;2023-12-28T06:46:23;6.47;;;5.90;;
7255;SDS011;3669;49.200;9.242;2023-12-28T06:48:50;6.53;;;5.93;;
7255;SDS011;3669;49.200;9.242;2023-12-28T06:51:17;6.80;;;6.30;;
7255;SDS011;3669;49.200;9.242;2023-12-28T06:53:45;6.07;;;5.57;;
7255;SDS011;3669;49.200;9.242;2023-12-28T06:56:12;7.15;;;6.65;;
7255;SDS011;3669;49.200;9.242;2023-12-28T06:58:39;5.82;;;5.43;;
7255;SDS011;3669;49.200;9.242;2023-12-28T07:01:06;6.82;;;6.28;;
7255;SDS011;3669;49.200;9.242;2023-12-28T07:03:33;24.23;;;22.98;;
7255;SDS011;3669;49.200;9.242;2023-12-28T07:06:00;30.33;;;28.80;;
7255;SDS011;3669;49.200;9.242;2023-12-28T07:08:28;30.27;;;28.63;;
7255;SDS011;3669;49.200;9.242;2023-12-28T07:10:55;25.92;;;24.67;;
7255;SDS011;3669;49.200;9.242;2023-12-28T07:13:23;29.67;;;27.98;;
7255;SDS011;3669;49.200;9.242;2023-12-28T07:15:49;30.08;;;28.42;;
7255;SDS011;3669;49.200;9.242;2023-12-28T07:18:17;20.40;;;19.33;;
7255;SDS011;3669;49.200;9.242;2023-12-28T07:20:43;8.45;;;7.88;;
7255;SDS011;3669;49.200;9.242;2023-12-28T07:23:10;5.38;;;4.82;;
7255;SDS011;3669;49.200;9.242;2023-12-28T07:25:37;5.30;;;4.90;;
7255;SDS011;3669;49.200;9.242;2023-12-28T07:28:04;5.50;;;5.10;;
7255;SDS011;3669;49.200;9.242;2023-12-28T07:30:31;5.20;;;4.75;;
7255;SDS011;3669;49.200;9.242;2023-12-28T07:32:58;5.00;;;4.60;;
7255;SDS011;3669;49.200;9.242;2023-12-28T07:35:25;5.28;;;4.88;;
7255;SDS011;3669;49.200;9.242;2023-12-28T07:37:52;5.15;;;4.80;;
7255;SDS011;3669;49.200;9.242;2023-12-28T07:40:20;5.18;;;4.75;;
7255;SDS011;3669;49.200;9.242;2023-12-28T07:42:47;6.20;;;5.80;;
7255;SDS011;3669;49.200;9.242;2023-12-28T07:45:14;4.60;;;4.30;;
7255;SDS011;3669;49.200;9.242;2023-12-28T07:47:43;4.80;;;4.50;;
7255;SDS011;3669;49.200;9.242;2023-12-28T07:50:10;4.80;;;4.50;;
7255;SDS011;3669;49.200;9.242;2023-12-28T07:52:37;5.10;;;4.70;;
7255;SDS011;3669;49.200;9.242;2023-12-28T07:55:04;5.18;;;4.63;;
7255;SDS011;3669;49.200;9.242;2023-12-28T07:57:31;5.60;;;5.20;;
7255;SDS011;3669;49.200;9.242;2023-12-28T08:00:00;4.97;;;4.60;;
7255;SDS011;3669;49.200;9.242;2023-12-28T08:02:27;4.75;;;4.45;;
7255;SDS011;3669;49.200;9.242;2023-12-28T08:04:53;5.57;;;5.18;;
7255;SDS011;3669;49.200;9.242;2023-12-28T08:07:21;4.80;;;4.50;;
7255;SDS011;3669;49.200;9.242;2023-12-28T08:09:48;5.07;;;4.68;;
7255;SDS011;3669;49.200;9.242;2023-12-28T08:12:15;4.70;;;4.30;;
7255;SDS011;3669;49.200;9.242;2023-12-28T08:14:43;5.45;;;5.05;;
7255;SDS011;3669;49.200;9.242;2023-12-28T08:17:10;5.53;;;5.07;;
7255;SDS011;3669;49.200;9.242;2023-12-28T08:19:37;5.10;;;4.70;;
7255;SDS011;3669;49.200;9.242;2023-12-28T08:22:04;5.07;;;4.78;;
7255;SDS011;3669;49.200;9.242;2023-12-28T08:24:32;4.80;;;4.40;;
7255;SDS011;3669;49.200;9.242;2023-12-28T08:26:59;5.30;;;4.90;;
7255;SDS011;3669;49.200;9.242;2023-12-28T08:29:26;4.57;;;4.28;;
7255;SDS011;3669;49.200;9.242;2023-12-28T08:31:53;5.07;;;4.75;;
7255;SDS011;3669;49.200;9.242;2023-12-28T08:34:21;4.78;;;4.35;;
7255;SDS011;3669;49.200;9.242;2023-12-28T08:36:48;4.68;;;4.38;;
7255;SDS011;3669;49.200;9.242;2023-12-28T08:39:15;4.35;;;4.05;;
7255;SDS011;3669;49.200;9.242;2023-12-28T08:41:42;4.88;;;4.47;;
7255;SDS011;3669;49.200;9.242;2023-12-28T08:44:10;4.80;;;4.32;;
7255;SDS011;3669;49.200;9.242;2023-12-28T08:46:37;5.03;;;4.68;;
7255;SDS011;3669;49.200;9.242;2023-12-28T08:49:04;5.30;;;4.90;;
7255;SDS011;3669;49.200;9.242;2023-12-28T08:51:31;5.20;;;4.90;;
7255;SDS011;3669;49.200;9.242;2023-12-28T08:53:58;5.40;;;4.97;;
7255;SDS011;3669;49.200;9.242;2023-12-28T08:56:25;5.80;;;5.40;;
7255;SDS011;3669;49.200;9.242;2023-12-28T08:58:52;5.90;;;5.35;;
7255;SDS011;3669;49.200;9.242;2023-12-28T09:01:20;5.38;;;4.90;;
7255;SDS011;3669;49.200;9.242;2023-12-28T09:03:51;5.85;;;5.43;;
7255;SDS011;3669;49.200;9.242;2023-12-28T09:06:19;5.75;;;5.30;;
7255;SDS011;3669;49.200;9.242;2023-12-28T09:08:50;4.88;;;4.47;;
7255;SDS011;3669;49.200;9.242;2023-12-28T09:11:18;5.15;;;4.57;;
7255;SDS011;3669;49.200;9.242;2023-12-28T09:13:45;4.72;;;4.32;;
7255;SDS011;3669;49.200;9.242;2023-12-28T09:16:12;5.50;;;5.13;;
7255;SDS011;3669;49.200;9.242;2023-12-28T09:18:40;5.38;;;4.97;;
7255;SDS011;3669;49.200;9.242;2023-12-28T09:21:08;13.30;;;12.45;;
7255;SDS011;3669;49.200;9.242;2023-12-28T09:23:36;32.90;;;31.15;;
7255;SDS011;3669;49.200;9.242;2023-12-28T09:26:03;29.13;;;27.63;;
7255;SDS011;3669;49.200;9.242;2023-12-28T09:28:30;15.98;;;15.13;;
7255;SDS011;3669;49.200;9.242;2023-12-28T09:30:57;6.32;;;5.85;;
7255;SDS011;3669;49.200;9.242;2023-12-28T09:33:24;5.75;;;5.35;;
7255;SDS011;3669;49.200;9.242;2023-12-28T09:35:51;4.93;;;4.63;;
7255;SDS011;3669;49.200;9.242;2023-12-28T09:38:19;4.93;;;4.55;;
7255;SDS011;3669;49.200;9.242;2023-12-28T09:40:47;5.50;;;4.93;;
7255;SDS011;3669;49.200;9.242;2023-12-28T09:43:22;4.88;;;4.50;;
7255;SDS011;3669;49.200;9.242;2023-12-28T09:45:51;5.40;;;5.00;;
7255;SDS011;3669;49.200;9.242;2023-12-28T09:48:18;4.95;;;4.60;;
7255;SDS011;3669;49.200;9.242;2023-12-28T09:50:55;4.97;;;4.57;;
7255;SDS011;3669;49.200;9.242;2023-12-28T09:53:23;4.70;;;4.30;;
7255;SDS011;3669;49.200;9.242;2023-12-28T09:55:51;5.20;;;4.80;;
7255;SDS011;3669;49.200;9.242;2023-12-28T09:58:19;5.32;;;4.93;;
7255;SDS011;3669;49.200;9.242;2023-12-28T10:00:47;4.57;;;4.28;;
7255;SDS011;3669;49.200;9.242;2023-12-28T10:03:15;5.68;;;5.28;;
7255;SDS011;3669;49.200;9.242;2023-12-28T10:05:43;5.68;;;5.28;;
7255;SDS011;3669;49.200;9.242;2023-12-28T10:08:11;5.72;;;5.32;;
7255;SDS011;3669;49.200;9.242;2023-12-28T10:10:39;5.13;;;4.70;;
7255;SDS011;3669;49.200;9.242;2023-12-28T10:13:07;4.72;;;4.35;;
7255;SDS011;3669;49.200;9.242;2023-12-28T10:15:38;4.78;;;4.38;;
7255;SDS011;3669;49.200;9.242;2023-12-28T10:18:06;5.38;;;4.88;;
7255;SDS011;3669;49.200;9.242;2023-12-28T10:20:33;4.70;;;4.20;;
7255;SDS011;3669;49.200;9.242;2023-12-28T10:23:00;4.47;;;4.15;;
7255;SDS011;3669;49.200;9.242;2023-12-28T10:25:28;5.25;;;4.85;;
7255;SDS011;3669;49.200;9.242;2023-12-28T10:27:55;5.03;;;4.72;;
7255;SDS011;3669;49.200;9.242;2023-12-28T10:30:23;5.45;;;5.13;;
7255;SDS011;3669;49.200;9.242;2023-12-28T10:32:50;5.22;;;4.82;;
7255;SDS011;3669;49.200;9.242;2023-12-28T10:35:17;5.15;;;4.85;;
7255;SDS011;3669;49.200;9.242;2023-12-28T10:37:45;5.15;;;4.75;;
7255;SDS011;3669;49.200;9.242;2023-12-28T10:40:13;4.40;;;4.10;;
7255;SDS011;3669;49.200;9.242;2023-12-28T10:45:18;4.65;;;4.10;;
7255;SDS011;3669;49.200;9.242;2023-12-28T10:50:49;4.93;;;4.60;;
7255;SDS011;3669;49.200;9.242;2023-12-28T10:56:16;4.90;;;4.50;;
7255;SDS011;3669;49.200;9.242;2023-12-28T10:58:48;4.82;;;4.35;;
7255;SDS011;3669;49.200;9.242;2023-12-28T11:01:19;5.40;;;5.00;;
7255;SDS011;3669;49.200;9.242;2023-12-28T11:03:51;4.53;;;4.22;;
7255;SDS011;3669;49.200;9.242;2023-12-28T11:06:20;4.45;;;4.00;;
7255;SDS011;3669;49.200;9.242;2023-12-28T11:08:48;4.63;;;4.28;;
7255;SDS011;3669;49.200;9.242;2023-12-28T11:11:17;5.03;;;4.63;;
7255;SDS011;3669;49.200;9.242;2023-12-28T11:13:44;4.63;;;4.28;;
7255;SDS011;3669;49.200;9.242;2023-12-28T11:16:12;4.85;;;4.45;;
7255;SDS011;3669;49.200;9.242;2023-12-28T11:18:39;5.13;;;4.70;;
7255;SDS011;3669;49.200;9.242;2023-12-28T11:21:07;4.85;;;4.45;;
7255;SDS011;3669;49.200;9.242;2023-12-28T11:23:34;4.75;;;4.35;;
7255;SDS011;3669;49.200;9.242;2023-12-28T11:26:01;16.40;;;15.35;;
7255;SDS011;3669;49.200;9.242;2023-12-28T11:28:29;34.63;;;32.72;;
7255;SDS011;3669;49.200;9.242;2023-12-28T11:30:56;32.13;;;30.50;;
7255;SDS011;3669;49.200;9.242;2023-12-28T11:33:23;29.92;;;28.15;;
7255;SDS011;3669;49.200;9.242;2023-12-28T11:35:57;26.38;;;25.13;;
7255;SDS011;3669;49.200;9.242;2023-12-28T11:38:24;44.90;;;42.40;;
7255;SDS011;3669;49.200;9.242;2023-12-28T11:40:52;25.35;;;24.00;;
7255;SDS011;3669;49.200;9.242;2023-12-28T11:43:21;10.55;;;9.75;;
7255;SDS011;3669;49.200;9.242;2023-12-28T11:45:50;5.07;;;4.70;;
7255;SDS011;3669;49.200;9.242;2023-12-28T11:48:24;5.85;;;5.35;;
7255;SDS011;3669;49.200;9.242;2023-12-28T11:50:55;4.65;;;4.30;;
7255;SDS011;3669;49.200;9.242;2023-12-28T11:53:23;4.68;;;4.28;;
7255;SDS011;3669;49.200;9.242;2023-12-28T11:55:51;4.97;;;4.68;;
7255;SDS011;3669;49.200;9.242;2023-12-28T11:58:18;5.10;;;4.70;;
7255;SDS011;3669;49.200;9.242;2023-12-28T12:00:45;4.93;;;4.53;;
7255;SDS011;3669;49.200;9.242;2023-12-28T12:03:14;4.28;;;3.97;;
7255;SDS011;3669;49.200;9.242;2023-12-28T12:05:41;5.03;;;4.63;;
7255;SDS011;3669;49.200;9.242;2023-12-28T12:08:09;5.03;;;4.63;;
7255;SDS011;3669;49.200;9.242;2023-12-28T12:10:40;5.07;;;4.63;;
7255;SDS011;3669;49.200;9.242;2023-12-28T12:13:07;4.85;;;4.55;;
7255;SDS011;3669;49.200;9.242;2023-12-28T12:15:35;4.80;;;4.50;;
7255;SDS011;3669;49.200;9.242;2023-12-28T12:18:03;4.97;;;4.65;;
7255;SDS011;3669;49.200;9.242;2023-12-28T12:20:32;4.95;;;4.53;;
7255;SDS011;3669;49.200;9.242;2023-12-28T12:22:59;4.85;;;4.55;;
7255;SDS011;3669;49.200;9.242;2023-12-28T12:25:26;5.18;;;4.70;;
7255;SDS011;3669;49.200;9.242;2023-12-28T12:27:55;4.88;;;4.57;;
7255;SDS011;3669;49.200;9.242;2023-12-28T12:30:22;5.15;;;4.78;;
7255;SDS011;3669;49.200;9.242;2023-12-28T12:32:49;4.68;;;4.30;;
7255;SDS011;3669;49.200;9.242;2023-12-28T12:35:16;13.77;;;13.07;;
7255;SDS011;3669;49.200;9.242;2023-12-28T12:37:48;4.82;;;4.43;;
7255;SDS011;3669;49.200;9.242;2023-12-28T12:40:16;5.03;;;4.63;;
7255;SDS011;3669;49.200;9.242;2023-12-28T12:42:52;5.50;;;4.57;;
7255;SDS011;3669;49.200;9.242;2023-12-28T12:45:20;4.75;;;4.35;;
7255;SDS011;3669;49.200;9.242;2023-12-28T12:47:51;4.82;;;4.53;;
7255;SDS011;3669;49.200;9.242;2023-12-28T12:50:18;5.10;;;4.70;;
7255;SDS011;3669;49.200;9.242;2023-12-28T12:52:45;4.70;;;4.30;;
7255;SDS011;3669;49.200;9.242;2023-12-28T12:55:14;4.53;;;4.22;;
7255;SDS011;3669;49.200;9.242;2023-12-28T12:57:41;5.10;;;4.70;;
7255;SDS011;3669;49.200;9.242;2023-12-28T13:00:11;4.72;;;4.32;;
7255;SDS011;3669;49.200;9.242;2023-12-28T13:02:39;4.60;;;4.20;;
7255;SDS011;3669;49.200;9.242;2023-12-28T13:05:07;4.40;;;4.00;;
7255;SDS011;3669;49.200;9.242;2023-12-28T13:07:34;6.28;;;5.07;;
7255;SDS011;3669;49.200;9.242;2023-12-28T13:10:01;4.93;;;4.53;;
7255;SDS011;3669;49.200;9.242;2023-12-28T13:12:28;4.60;;;4.20;;
7255;SDS011;3669;49.200;9.242;2023-12-28T13:14:55;5.18;;;4.78;;
7255;SDS011;3669;49.200;9.242;2023-12-28T13:17:22;4.47;;;4.07;;
7255;SDS011;3669;49.200;9.242;2023-12-28T13:19:49;4.68;;;4.32;;
7255;SDS011;3669;49.200;9.242;2023-12-28T13:22:16;4.63;;;4.32;;
7255;SDS011;3669;49.200;9.242;2023-12-28T13:24:43;5.00;;;4.60;;
7255;SDS011;3669;49.200;9.242;2023-12-28T13:27:11;4.75;;;4.45;;
7255;SDS011;3669;49.200;9.242;2023-12-28T13:29:40;4.82;;;4.50;;
7255;SDS011;3669;49.200;9.242;2023-12-28T13:32:07;4.90;;;4.60;;
7255;SDS011;3669;49.200;9.242;2023-12-28T13:34:34;4.80;;;4.40;;
7255;SDS011;3669;49.200;9.242;2023-12-28T13:37:01;5.38;;;4.97;;
7255;SDS011;3669;49.200;9.242;2023-12-28T13:39:28;5.07;;;4.68;;
7255;SDS011;3669;49.200;9.242;2023-12-28T13:41:56;4.75;;;4.40;;
7255;SDS011;3669;49.200;9.242;2023-12-28T13:44:23;19.08;;;18.00;;
7255;SDS011;3669;49.200;9.242;2023-12-28T13:46:50;30.45;;;28.77;;
7255;SDS011;3669;49.200;9.242;2023-12-28T13:49:19;29.55;;;27.80;;
7255;SDS011;3669;49.200;9.242;2023-12-28T13:51:46;20.88;;;19.65;;
7255;SDS011;3669;49.200;9.242;2023-12-28T13:54:13;30.70;;;29.08;;
7255;SDS011;3669;49.200;9.242;2023-12-28T13:56:40;18.30;;;17.23;;
7255;SDS011;3669;49.200;9.242;2023-12-28T13:59:07;11.50;;;10.85;;
7255;SDS011;3669;49.200;9.242;2023-12-28T14:01:34;6.80;;;5.65;;
7255;SDS011;3669;49.200;9.242;2023-12-28T14:04:01;4.63;;;4.22;;
7255;SDS011;3669;49.200;9.242;2023-12-28T14:06:29;4.50;;;4.10;;
7255;SDS011;3669;49.200;9.242;2023-12-28T14:08:57;4.50;;;4.20;;
7255;SDS011;3669;49.200;9.242;2023-12-28T14:11:24;5.00;;;4.60;;
7255;SDS011;3669;49.200;9.242;2023-12-28T14:13:51;4.07;;;3.72;;
7255;SDS011;3669;49.200;9.242;2023-12-28T14:16:18;4.68;;;4.38;;
7255;SDS011;3669;49.200;9.242;2023-12-28T14:18:45;4.47;;;4.07;;
7255;SDS011;3669;49.200;9.242;2023-12-28T14:21:14;4.63;;;4.32;;
7255;SDS011;3669;49.200;9.242;2023-12-28T14:23:42;4.68;;;4.32;;
7255;SDS011;3669;49.200;9.242;2023-12-28T14:26:12;4.22;;;3.92;;
7255;SDS011;3669;49.200;9.242;2023-12-28T14:28:44;4.25;;;3.95;;
7255;SDS011;3669;49.200;9.242;2023-12-28T14:31:11;4.75;;;4.40;;
7255;SDS011;3669;49.200;9.242;2023-12-28T14:33:38;4.38;;;3.97;;
7255;SDS011;3669;49.200;9.242;2023-12-28T14:36:17;4.70;;;4.40;;
7255;SDS011;3669;49.200;9.242;2023-12-28T14:38:50;5.13;;;4.72;;
7255;SDS011;3669;49.200;9.242;2023-12-28T14:41:17;4.32;;;4.03;;
7255;SDS011;3669;49.200;9.242;2023-12-28T14:43:45;4.25;;;3.92;;
7255;SDS011;3669;49.200;9.242;2023-12-28T14:46:12;4.63;;;4.32;;
7255;SDS011;3669;49.200;9.242;2023-12-28T14:48:39;5.00;;;4.60;;
7255;SDS011;3669;49.200;9.242;2023-12-28T14:51:06;4.78;;;4.38;;
7255;SDS011;3669;49.200;9.242;2023-12-28T14:53:33;4.63;;;4.22;;
7255;SDS011;3669;49.200;9.242;2023-12-28T14:56:00;4.35;;;3.95;;
7255;SDS011;3669;49.200;9.242;2023-12-28T14:58:28;4.60;;;4.20;;
7255;SDS011;3669;49.200;9.242;2023-12-28T15:00:56;5.00;;;4.60;;
7255;SDS011;3669;49.200;9.242;2023-12-28T15:03:23;4.15;;;3.85;;
7255;SDS011;3669;49.200;9.242;2023-12-28T15:05:51;4.82;;;4.43;;
7255;SDS011;3669;49.200;9.242;2023-12-28T15:08:18;4.57;;;4.20;;
7255;SDS011;3669;49.200;9.242;2023-12-28T15:10:45;4.40;;;4.10;;
7255;SDS011;3669;49.200;9.242;2023-12-28T15:13:12;4.70;;;4.30;;
7255;SDS011;3669;49.200;9.242;2023-12-28T15:15:39;5.07;;;4.68;;
7255;SDS011;3669;49.200;9.242;2023-12-28T15:18:07;4.53;;;4.22;;
7255;SDS011;3669;49.200;9.242;2023-12-28T15:20:34;4.45;;;4.05;;
7255;SDS011;3669;49.200;9.242;2023-12-28T15:23:01;4.22;;;3.92;;
7255;SDS011;3669;49.200;9.242;2023-12-28T15:25:28;4.30;;;4.00;;
7255;SDS011;3669;49.200;9.242;2023-12-28T15:27:56;4.28;;;3.90;;
7255;SDS011;3669;49.200;9.242;2023-12-28T15:30:23;4.85;;;4.35;;